Time;durP1;ratioP1;P1;durP2;ratioP2;P2;SDS_P1;SDS_P2;PMS_P1;PMS_P2;Temp;Humidity;BMP_temperature;BMP_pressure;BME280_temperature;BME280_humidity;BME280_pressure;Samples;Min_cycle;Max_cycle;Signal;HPM_P1;HPM_P2
2024/01/11 00:01:12;;;;;;;2.17;1.48;;;;;;;;;;5035345;28;20036;-71
2024/01/11 00:03:38;;;;;;;2.03;1.20;;;;;;;;;;5035009;28;20065;-72
2024/01/11 00:06:04;;;;;;;6.85;1.50;;;;;;;;;;5035026;28;20061;-72
2024/01/11 00:08:30;;;;;;;1.83;1.27;;;;;;;;;;5034956;28;20025;-72
2024/01/11 00:10:56;;;;;;;3.30;1.58;;;;;;;;;;5034421;28;20475;-71
2024/01/11 00:13:22;;;;;;;3.28;1.60;;;;;;;;;;5034942;28;20037;-72
2024/01/11 00:15:48;;;;;;;2.03;1.83;;;;;;;;;;5034829;28;20025;-72
2024/01/11 00:18:14;;;;;;;2.38;1.30;;;;;;;;;;5034621;28;20503;-71
2024/01/11 00:20:40;;;;;;;1.60;1.40;;;;;;;;;;5034517;28;20033;-72
2024/01/11 00:23:06;;;;;;;1.42;1.30;;;;;;;;;;5034699;28;20061;-72
2024/01/11 00:25:32;;;;;;;4.13;1.40;;;;;;;;;;5034564;28;20040;-72
2024/01/11 00:27:58;;;;;;;1.73;1.25;;;;;;;;;;5034515;28;20017;-72
2024/01/11 00:30:24;;;;;;;3.78;1.60;;;;;;;;;;5034248;28;20029;-72
2024/01/11 00:32:50;;;;;;;2.33;1.45;;;;;;;;;;5049612;28;20032;-72
2024/01/11 00:35:16;;;;;;;1.83;1.58;;;;;;;;;;5049981;28;20022;-71
2024/01/11 00:37:42;;;;;;;2.88;1.77;;;;;;;;;;5034503;28;20041;-69
2024/01/11 00:40:08;;;;;;;5.30;1.88;;;;;;;;;;5034095;28;20032;-72
2024/01/11 00:42:37;;;;;;;7.80;1.88;;;;;;;;;;5034240;28;20514;-72
2024/01/11 00:45:03;;;;;;;10.30;1.58;;;;;;;;;;5018996;28;20053;-72
2024/01/11 00:47:29;;;;;;;12.18;2.15;;;;;;;;;;5014302;28;20030;-72
2024/01/11 00:49:55;;;;;;;1.88;1.30;;;;;;;;;;5013941;28;20025;-72
2024/01/11 00:52:21;;;;;;;7.30;1.50;;;;;;;;;;5014177;28;20029;-71
2024/01/11 00:54:47;;;;;;;2.65;1.35;;;;;;;;;;5014040;28;20026;-71
2024/01/11 00:57:13;;;;;;;2.65;1.30;;;;;;;;;;5014090;28;20040;-70
2024/01/11 00:59:41;;;;;;;2.50;1.33;;;;;;;;;;5026421;28;20100;-72
2024/01/11 01:02:07;;;;;;;3.75;1.50;;;;;;;;;;5049129;28;20504;-73
2024/01/11 01:04:33;;;;;;;6.25;1.45;;;;;;;;;;5032973;28;20033;-72
2024/01/11 01:06:59;;;;;;;4.18;1.17;;;;;;;;;;5049083;28;20068;-72
2024/01/11 01:09:25;;;;;;;4.32;1.73;;;;;;;;;;5033854;28;20025;-72
2024/01/11 01:11:51;;;;;;;2.42;1.75;;;;;;;;;;5033405;28;20121;-72
2024/01/11 01:14:16;;;;;;;4.75;1.67;;;;;;;;;;5049063;28;20068;-72
2024/01/11 01:16:42;;;;;;;3.20;1.40;;;;;;;;;;5033796;28;20052;-72
2024/01/11 01:19:08;;;;;;;2.92;1.65;;;;;;;;;;5033443;28;20052;-72
2024/01/11 01:21:34;;;;;;;1.95;1.55;;;;;;;;;;5033297;28;20021;-72
2024/01/11 01:24:00;;;;;;;1.95;1.42;;;;;;;;;;5033301;28;20133;-71
2024/01/11 01:26:26;;;;;;;4.13;1.17;;;;;;;;;;5033290;28;20029;-71
2024/01/11 01:28:52;;;;;;;1.65;1.15;;;;;;;;;;5033217;28;20604;-71
2024/01/11 01:31:18;;;;;;;2.58;1.75;;;;;;;;;;5032912;28;20554;-71
2024/01/11 01:33:44;;;;;;;3.03;1.40;;;;;;;;;;5033349;28;20025;-71
2024/01/11 01:36:11;;;;;;;5.32;1.65;;;;;;;;;;5033251;28;20402;-72
2024/01/11 01:38:36;;;;;;;2.60;1.23;;;;;;;;;;5032760;28;20033;-71
2024/01/11 01:41:03;;;;;;;3.60;1.90;;;;;;;;;;5033060;28;20041;-72
2024/01/11 01:43:29;;;;;;;4.43;1.98;;;;;;;;;;5033230;28;20037;-71
2024/01/11 01:45:55;;;;;;;2.38;1.30;;;;;;;;;;5033027;28;20025;-68
2024/01/11 01:48:21;;;;;;;5.93;1.60;;;;;;;;;;5032740;28;20041;-69
2024/01/11 01:50:50;;;;;;;3.70;1.90;;;;;;;;;;5032549;28;20521;-71
2024/01/11 01:53:18;;;;;;;3.30;2.08;;;;;;;;;;5032729;28;20025;-71
2024/01/11 01:55:44;;;;;;;1.30;1.20;;;;;;;;;;5032668;28;20025;-72
2024/01/11 01:58:10;;;;;;;3.78;1.38;;;;;;;;;;5032539;28;20076;-72
2024/01/11 02:00:36;;;;;;;4.97;1.45;;;;;;;;;;5032447;28;20041;-71
2024/01/11 02:03:03;;;;;;;1.42;1.20;;;;;;;;;;5032722;28;20486;-72
2024/01/11 02:05:29;;;;;;;4.68;1.58;;;;;;;;;;5032612;28;20549;-72
2024/01/11 02:07:56;;;;;;;5.78;2.00;;;;;;;;;;5032529;28;20055;-73
2024/01/11 02:10:22;;;;;;;5.85;1.50;;;;;;;;;;5032223;28;20086;-73
2024/01/11 02:12:48;;;;;;;11.77;1.83;;;;;;;;;;5032228;28;20113;-72
2024/01/11 02:15:15;;;;;;;6.43;1.55;;;;;;;;;;5031630;28;20029;-71
2024/01/11 02:17:41;;;;;;;11.27;1.80;;;;;;;;;;5047702;28;20022;-72
2024/01/11 02:20:08;;;;;;;5.95;2.05;;;;;;;;;;5032216;28;20029;-72
2024/01/11 02:22:38;;;;;;;10.50;2.00;;;;;;;;;;5030976;28;20029;-72
2024/01/11 02:25:05;;;;;;;4.93;1.77;;;;;;;;;;5032219;28;20061;-71
2024/01/11 02:27:31;;;;;;;2.20;1.35;;;;;;;;;;5032100;28;20101;-71
2024/01/11 02:29:57;;;;;;;3.28;1.55;;;;;;;;;;5032068;28;20101;-71
2024/01/11 02:32:23;;;;;;;4.30;1.95;;;;;;;;;;5047531;28;20035;-70
2024/01/11 02:34:49;;;;;;;1.92;1.40;;;;;;;;;;5032188;28;20029;-72
2024/01/11 02:37:15;;;;;;;1.95;1.10;;;;;;;;;;5030302;28;20053;-69
2024/01/11 02:39:41;;;;;;;2.72;0.93;;;;;;;;;;5031746;28;20026;-70
2024/01/11 02:42:07;;;;;;;1.27;1.10;;;;;;;;;;5032012;28;20036;-71
2024/01/11 02:44:33;;;;;;;5.93;1.80;;;;;;;;;;5031895;28;20021;-71
2024/01/11 02:46:59;;;;;;;2.95;1.98;;;;;;;;;;5031954;28;20024;-71
2024/01/11 02:49:25;;;;;;;2.45;1.38;;;;;;;;;;5032271;28;20406;-71
2024/01/11 02:51:51;;;;;;;6.50;1.48;;;;;;;;;;5031485;28;20040;-71
2024/01/11 02:54:17;;;;;;;4.60;1.30;;;;;;;;;;5031781;28;20124;-72
2024/01/11 02:56:43;;;;;;;3.63;1.48;;;;;;;;;;5031796;28;20026;-73
2024/01/11 02:59:09;;;;;;;5.32;1.38;;;;;;;;;;5046873;28;20022;-72
2024/01/11 03:01:36;;;;;;;4.18;1.60;;;;;;;;;;5031665;28;20045;-70
2024/01/11 03:04:02;;;;;;;3.63;1.63;;;;;;;;;;5031698;28;20025;-71
2024/01/11 03:06:28;;;;;;;3.08;1.55;;;;;;;;;;5031611;28;20025;-71
2024/01/11 03:08:54;;;;;;;2.25;1.38;;;;;;;;;;5031303;28;20471;-71
2024/01/11 03:11:20;;;;;;;4.63;1.42;;;;;;;;;;5030347;28;20056;-71
2024/01/11 03:13:46;;;;;;;1.60;1.35;;;;;;;;;;5030168;28;20075;-71
2024/01/11 03:16:12;;;;;;;1.83;1.35;;;;;;;;;;5030401;28;20026;-71
2024/01/11 03:18:38;;;;;;;2.30;1.30;;;;;;;;;;5030223;28;20028;-71
2024/01/11 03:21:04;;;;;;;1.92;1.60;;;;;;;;;;5045155;28;20032;-72
2024/01/11 03:23:30;;;;;;;2.60;1.30;;;;;;;;;;5045579;28;20087;-72
2024/01/11 03:25:56;;;;;;;1.77;1.42;;;;;;;;;;5030112;28;20029;-72
2024/01/11 03:28:22;;;;;;;1.55;1.40;;;;;;;;;;5033679;28;20194;-71
2024/01/11 03:30:48;;;;;;;1.83;1.50;;;;;;;;;;5033911;28;20061;-71
2024/01/11 03:33:14;;;;;;;3.35;1.10;;;;;;;;;;5034352;28;20096;-71
2024/01/11 03:35:40;;;;;;;2.58;1.35;;;;;;;;;;5049446;28;20488;-72
2024/01/11 03:38:06;;;;;;;1.33;1.17;;;;;;;;;;5033821;28;20435;-71
2024/01/11 03:40:32;;;;;;;2.20;1.23;;;;;;;;;;5033680;28;20029;-71
2024/01/11 03:42:58;;;;;;;1.70;1.30;;;;;;;;;;5033950;28;20094;-72
2024/01/11 03:45:24;;;;;;;1.73;1.23;;;;;;;;;;5033943;28;20032;-72
2024/01/11 03:47:50;;;;;;;11.38;1.30;;;;;;;;;;5033693;28;20032;-72
2024/01/11 03:50:16;;;;;;;1.83;1.20;;;;;;;;;;5033514;28;20029;-72
2024/01/11 03:52:43;;;;;;;1.95;1.40;;;;;;;;;;5033895;28;20108;-72
2024/01/11 03:55:09;;;;;;;2.83;1.23;;;;;;;;;;5033703;28;20026;-72
2024/01/11 03:57:35;;;;;;;1.60;1.30;;;;;;;;;;5033725;28;20060;-72
2024/01/11 04:00:01;;;;;;;1.50;1.00;;;;;;;;;;5033545;28;20112;-72
2024/01/11 04:02:27;;;;;;;1.70;1.23;;;;;;;;;;5048876;28;20075;-72
2024/01/11 04:04:53;;;;;;;3.85;1.30;;;;;;;;;;5033700;28;20117;-71
2024/01/11 04:07:19;;;;;;;1.17;1.08;;;;;;;;;;5048819;28;20034;-71
2024/01/11 04:09:45;;;;;;;1.63;1.42;;;;;;;;;;5033068;28;20034;-71
2024/01/11 04:12:11;;;;;;;2.60;1.42;;;;;;;;;;5033752;28;20486;-71
2024/01/11 04:14:40;;;;;;;2.35;1.13;;;;;;;;;;5034088;28;20097;-71
2024/01/11 04:17:07;;;;;;;1.92;1.25;;;;;;;;;;5033298;28;20025;-70
2024/01/11 04:19:33;;;;;;;1.70;1.20;;;;;;;;;;5033525;28;20514;-71
2024/01/11 04:21:59;;;;;;;2.08;1.38;;;;;;;;;;5033585;28;20553;-70
2024/01/11 04:24:25;;;;;;;1.40;1.25;;;;;;;;;;5033229;28;20025;-71
2024/01/11 04:26:51;;;;;;;1.73;1.30;;;;;;;;;;5033328;28;20032;-71
2024/01/11 04:29:17;;;;;;;2.10;1.20;;;;;;;;;;5048536;28;20103;-70
2024/01/11 04:31:43;;;;;;;2.25;1.35;;;;;;;;;;5032730;28;20036;-70
2024/01/11 04:34:09;;;;;;;2.42;1.45;;;;;;;;;;5033264;28;20022;-70
2024/01/11 04:36:38;;;;;;;1.65;1.10;;;;;;;;;;5032702;28;20084;-70
2024/01/11 04:39:07;;;;;;;1.52;1.20;;;;;;;;;;5031734;28;20438;-71
2024/01/11 04:41:38;;;;;;;3.42;1.05;;;;;;;;;;5032403;28;20053;-70
2024/01/11 04:44:05;;;;;;;1.33;1.20;;;;;;;;;;5032931;28;20509;-70
2024/01/11 04:46:31;;;;;;;3.95;1.35;;;;;;;;;;5032844;28;20037;-70
2024/01/11 04:48:57;;;;;;;2.63;1.48;;;;;;;;;;5032351;28;20116;-71
2024/01/11 04:51:23;;;;;;;1.25;1.05;;;;;;;;;;5031952;28;20552;-71
2024/01/11 04:53:50;;;;;;;3.67;1.20;;;;;;;;;;5032203;28;20025;-71
2024/01/11 04:56:16;;;;;;;3.72;1.38;;;;;;;;;;5047405;28;20025;-71
2024/01/11 04:58:43;;;;;;;1.58;1.30;;;;;;;;;;5032075;28;20455;-71
2024/01/11 05:01:12;;;;;;;1.98;1.23;;;;;;;;;;5031929;28;20460;-71
2024/01/11 05:03:38;;;;;;;1.25;1.08;;;;;;;;;;5032149;28;20025;-70
2024/01/11 05:06:04;;;;;;;1.50;1.08;;;;;;;;;;5031896;28;20029;-70
2024/01/11 05:08:30;;;;;;;1.23;1.13;;;;;;;;;;5031993;28;20425;-71
2024/01/11 05:10:56;;;;;;;1.50;1.27;;;;;;;;;;5031673;28;20049;-71
2024/01/11 05:13:22;;;;;;;1.42;1.20;;;;;;;;;;5032368;28;20045;-70
2024/01/11 05:15:48;;;;;;;3.05;1.33;;;;;;;;;;5032518;28;20443;-71
2024/01/11 05:18:14;;;;;;;1.55;1.23;;;;;;;;;;5032676;28;20026;-71
2024/01/11 05:20:41;;;;;;;2.65;1.17;;;;;;;;;;5032333;28;20112;-70
2024/01/11 05:23:07;;;;;;;1.88;1.13;;;;;;;;;;5032478;28;20483;-71
2024/01/11 05:25:33;;;;;;;1.67;1.17;;;;;;;;;;5032410;28;20033;-71
2024/01/11 05:28:03;;;;;;;2.05;1.08;;;;;;;;;;5032059;28;20026;-70
2024/01/11 05:30:29;;;;;;;8.43;1.23;;;;;;;;;;5031981;28;20033;-70
2024/01/11 05:32:55;;;;;;;3.15;1.40;;;;;;;;;;5032132;28;20021;-69
2024/01/11 05:35:23;;;;;;;1.75;1.40;;;;;;;;;;5032140;28;20076;-70
2024/01/11 05:37:49;;;;;;;2.13;1.25;;;;;;;;;;5031925;28;20021;-68
2024/01/11 05:40:15;;;;;;;4.40;1.15;;;;;;;;;;5031911;28;20475;-69
2024/01/11 05:42:41;;;;;;;1.40;1.30;;;;;;;;;;5031728;28;20053;-70
2024/01/11 05:45:07;;;;;;;2.67;1.20;;;;;;;;;;5032061;28;20060;-70
2024/01/11 05:47:33;;;;;;;11.02;1.38;;;;;;;;;;5031612;28;20101;-70
2024/01/11 05:49:59;;;;;;;4.03;1.50;;;;;;;;;;5031243;28;20030;-68
2024/01/11 05:52:25;;;;;;;5.13;2.00;;;;;;;;;;5031446;28;20498;-67
2024/01/11 05:54:51;;;;;;;2.15;1.67;;;;;;;;;;5031583;28;20033;-68
2024/01/11 05:57:17;;;;;;;3.70;2.03;;;;;;;;;;5031250;28;20037;-69
2024/01/11 05:59:44;;;;;;;3.97;1.77;;;;;;;;;;5030839;28;20096;-69
2024/01/11 06:02:10;;;;;;;5.25;2.45;;;;;;;;;;5030982;28;20494;-69
2024/01/11 06:04:36;;;;;;;14.30;3.25;;;;;;;;;;5029713;28;20104;-69
2024/01/11 06:07:02;;;;;;;24.67;4.40;;;;;;;;;;5030144;28;20026;-71
2024/01/11 06:09:28;;;;;;;13.05;3.25;;;;;;;;;;5030353;28;20026;-70
2024/01/11 06:11:54;;;;;;;18.92;4.00;;;;;;;;;;5045699;28;20150;-67
2024/01/11 06:14:21;;;;;;;10.60;3.22;;;;;;;;;;5030719;28;20028;-69
2024/01/11 06:16:47;;;;;;;18.02;3.33;;;;;;;;;;5030365;28;20036;-70
2024/01/11 06:19:13;;;;;;;14.18;3.47;;;;;;;;;;5030671;28;20105;-66
2024/01/11 06:21:39;;;;;;;19.02;3.72;;;;;;;;;;5030450;28;20473;-68
2024/01/11 06:24:05;;;;;;;12.05;3.47;;;;;;;;;;5030503;28;20103;-68
2024/01/11 06:26:31;;;;;;;16.13;3.10;;;;;;;;;;5030476;28;20406;-68
2024/01/11 06:28:56;;;;;;;9.57;2.10;;;;;;;;;;5030568;28;20091;-68
2024/01/11 06:31:23;;;;;;;16.90;3.65;;;;;;;;;;5030113;28;20037;-69
2024/01/11 06:33:49;;;;;;;8.57;2.40;;;;;;;;;;5030286;28;20052;-69
2024/01/11 06:36:15;;;;;;;8.52;2.78;;;;;;;;;;5029995;28;20060;-68
2024/01/11 06:38:41;;;;;;;6.80;3.00;;;;;;;;;;5030237;28;20024;-68
2024/01/11 06:41:07;;;;;;;15.18;2.80;;;;;;;;;;5030116;28;20033;-69
2024/01/11 06:43:33;;;;;;;10.15;2.83;;;;;;;;;;5030397;28;20108;-69
2024/01/11 06:46:03;;;;;;;13.40;2.38;;;;;;;;;;5030121;28;20036;-69
2024/01/11 06:48:29;;;;;;;6.15;2.28;;;;;;;;;;5030059;28;20124;-70
2024/01/11 06:50:55;;;;;;;7.93;2.20;;;;;;;;;;5030015;28;20033;-69
2024/01/11 06:53:21;;;;;;;11.90;2.88;;;;;;;;;;5029964;28;20096;-70
2024/01/11 06:55:47;;;;;;;6.60;2.78;;;;;;;;;;5029943;28;20029;-67
2024/01/11 06:58:13;;;;;;;24.02;3.22;;;;;;;;;;5029891;28;20028;-72
2024/01/11 07:00:42;;;;;;;11.30;3.90;;;;;;;;;;5029664;28;20032;-68
2024/01/11 07:03:10;;;;;;;8.25;4.15;;;;;;;;;;5029650;28;20119;-70
2024/01/11 07:05:36;;;;;;;12.23;4.10;;;;;;;;;;5030113;28;20083;-68
2024/01/11 07:08:02;;;;;;;10.10;3.88;;;;;;;;;;5029952;28;20104;-69
2024/01/11 07:10:28;;;;;;;11.23;4.28;;;;;;;;;;5029850;28;20029;-68
2024/01/11 07:12:54;;;;;;;10.05;3.95;;;;;;;;;;5030821;28;20026;-72
2024/01/11 07:15:20;;;;;;;13.02;4.43;;;;;;;;;;5029863;28;20053;-68
2024/01/11 07:17:46;;;;;;;17.48;4.32;;;;;;;;;;5029711;28;20028;-68
2024/01/11 07:20:13;;;;;;;8.73;3.90;;;;;;;;;;5029506;28;20025;-69
2024/01/11 07:22:39;;;;;;;19.58;4.10;;;;;;;;;;5029498;28;20108;-68
2024/01/11 07:25:05;;;;;;;10.95;4.18;;;;;;;;;;5029760;28;20068;-68
2024/01/11 07:27:31;;;;;;;9.45;3.90;;;;;;;;;;5029744;28;20121;-69
2024/01/11 07:29:57;;;;;;;13.27;4.57;;;;;;;;;;5029544;28;20124;-68
2024/01/11 07:32:23;;;;;;;8.73;3.25;;;;;;;;;;5029457;28;20056;-68
2024/01/11 07:34:49;;;;;;;14.35;3.95;;;;;;;;;;5029263;28;20479;-67
2024/01/11 07:37:15;;;;;;;13.88;4.03;;;;;;;;;;5029271;28;20095;-68
2024/01/11 07:39:40;;;;;;;9.55;4.00;;;;;;;;;;5029366;28;20018;-68
2024/01/11 07:42:07;;;;;;;9.68;4.20;;;;;;;;;;5029417;28;20502;-67
2024/01/11 07:44:33;;;;;;;9.60;3.45;;;;;;;;;;5029526;28;20079;-67
2024/01/11 07:47:00;;;;;;;10.20;3.65;;;;;;;;;;5029564;28;20029;-68
2024/01/11 07:49:26;;;;;;;7.13;3.50;;;;;;;;;;5029358;28;20059;-69
2024/01/11 07:51:52;;;;;;;8.93;3.95;;;;;;;;;;5029141;28;20621;-68
2024/01/11 07:54:18;;;;;;;14.50;3.88;;;;;;;;;;5044504;28;20120;-68
2024/01/11 07:56:44;;;;;;;12.48;4.07;;;;;;;;;;5029327;28;20053;-68
2024/01/11 07:59:14;;;;;;;8.35;3.33;;;;;;;;;;5029306;28;20053;-69
2024/01/11 08:01:40;;;;;;;13.60;3.60;;;;;;;;;;5044287;28;20025;-69
2024/01/11 08:04:06;;;;;;;10.57;3.33;;;;;;;;;;5029355;28;20026;-69
2024/01/11 08:06:32;;;;;;;14.32;3.22;;;;;;;;;;5029577;28;20029;-69
2024/01/11 08:08:58;;;;;;;4.70;2.88;;;;;;;;;;5029309;28;20030;-69
2024/01/11 08:11:24;;;;;;;4.07;2.75;;;;;;;;;;5029006;28;20395;-69
2024/01/11 08:13:50;;;;;;;6.47;3.28;;;;;;;;;;5031881;28;20025;-68
2024/01/11 08:16:17;;;;;;;9.07;2.80;;;;;;;;;;5033028;28;20030;-69
2024/01/11 08:18:43;;;;;;;4.30;2.40;;;;;;;;;;5032926;28;20017;-69
2024/01/11 08:21:10;;;;;;;4.47;2.38;;;;;;;;;;5032662;28;20048;-70
2024/01/11 08:23:39;;;;;;;4.60;2.45;;;;;;;;;;5032978;28;20036;-69
2024/01/11 08:26:05;;;;;;;5.05;2.25;;;;;;;;;;5032835;28;20038;-68
2024/01/11 08:28:32;;;;;;;5.93;2.05;;;;;;;;;;5032790;28;20525;-69
2024/01/11 08:30:58;;;;;;;4.72;2.10;;;;;;;;;;5032606;28;20041;-70
2024/01/11 08:33:24;;;;;;;12.68;2.58;;;;;;;;;;5032799;28;20165;-70
2024/01/11 08:35:50;;;;;;;19.23;2.78;;;;;;;;;;5033242;28;20033;-71
2024/01/11 08:38:16;;;;;;;27.20;4.00;;;;;;;;;;5032772;28;20025;-69
2024/01/11 08:40:42;;;;;;;24.63;3.67;;;;;;;;;;5048065;28;20132;-69
2024/01/11 08:43:08;;;;;;;27.33;3.80;;;;;;;;;;5032761;28;20021;-68
2024/01/11 08:45:34;;;;;;;21.48;3.38;;;;;;;;;;5032384;28;20122;-68
2024/01/11 08:48:00;;;;;;;10.32;3.35;;;;;;;;;;5031880;28;20706;-69
2024/01/11 08:50:26;;;;;;;10.35;3.33;;;;;;;;;;5033118;22;20053;-65
2024/01/11 08:52:54;;;;;;;13.98;3.13;;;;;;;;;;5013708;28;20076;-65
2024/01/11 08:55:20;;;;;;;15.13;3.28;;;;;;;;;;5013998;28;20043;-66
2024/01/11 08:57:46;;;;;;;5.50;2.03;;;;;;;;;;5013988;28;20018;-66
2024/01/11 09:00:17;;;;;;;11.90;2.55;;;;;;;;;;5013961;28;20032;-66
2024/01/11 09:02:43;;;;;;;9.98;2.65;;;;;;;;;;5013858;28;20032;-66
2024/01/11 09:05:09;;;;;;;16.33;3.13;;;;;;;;;;5013454;28;20387;-66
2024/01/11 09:07:35;;;;;;;9.68;2.55;;;;;;;;;;5013804;28;20515;-66
2024/01/11 09:10:01;;;;;;;8.02;2.28;;;;;;;;;;5013631;28;20018;-66
2024/01/11 09:12:30;;;;;;;9.93;2.30;;;;;;;;;;5013930;28;20442;-66
2024/01/11 09:14:59;;;;;;;9.30;2.30;;;;;;;;;;5013780;28;20014;-65
2024/01/11 09:17:25;;;;;;;7.35;2.63;;;;;;;;;;5013634;28;20042;-65
2024/01/11 09:19:51;;;;;;;10.85;2.45;;;;;;;;;;5010400;28;20022;-66
2024/01/11 09:22:17;;;;;;;3.92;2.03;;;;;;;;;;5013614;28;20068;-66
2024/01/11 09:24:43;;;;;;;12.93;2.15;;;;;;;;;;5013183;28;20495;-65
2024/01/11 09:27:10;;;;;;;5.15;1.92;;;;;;;;;;5013674;28;20021;-66
2024/01/11 09:29:36;;;;;;;3.60;2.17;;;;;;;;;;5013209;28;20035;-64
2024/01/11 09:32:02;;;;;;;6.78;1.80;;;;;;;;;;5013423;28;20026;-66
2024/01/11 09:34:28;;;;;;;4.22;1.75;;;;;;;;;;5013310;28;20414;-71
2024/01/11 09:36:55;;;;;;;5.18;1.98;;;;;;;;;;5013282;28;20109;-66
2024/01/11 09:39:23;;;;;;;4.82;1.58;;;;;;;;;;5013375;28;20046;-66
2024/01/11 09:41:58;;;;;;;4.47;1.52;;;;;;;;;;5013043;28;20029;-67
2024/01/11 09:44:25;;;;;;;3.83;1.58;;;;;;;;;;5013268;28;20092;-66
2024/01/11 09:46:51;;;;;;;4.68;1.45;;;;;;;;;;5013130;28;20034;-66
2024/01/11 09:49:17;;;;;;;3.47;1.58;;;;;;;;;;5012719;28;20065;-66
2024/01/11 09:51:44;;;;;;;5.85;1.30;;;;;;;;;;5012777;28;20080;-66
2024/01/11 09:54:11;;;;;;;3.28;1.52;;;;;;;;;;5006663;28;20033;-66
2024/01/11 09:56:38;;;;;;;3.17;1.35;;;;;;;;;;4993359;28;20641;-64
2024/01/11 09:59:07;;;;;;;3.53;1.50;;;;;;;;;;4993115;28;20022;-66
2024/01/11 10:01:33;;;;;;;3.28;1.40;;;;;;;;;;4992937;28;20069;-66
2024/01/11 10:04:00;;;;;;;2.65;1.20;;;;;;;;;;4994371;28;20101;-66
2024/01/11 10:06:26;;;;;;;1.98;1.00;;;;;;;;;;5012731;28;20025;-66
2024/01/11 10:08:52;;;;;;;6.03;1.60;;;;;;;;;;5012572;28;20509;-66
2024/01/11 10:11:18;;;;;;;4.63;1.50;;;;;;;;;;5012243;28;20034;-66
2024/01/11 10:13:45;;;;;;;3.88;1.02;;;;;;;;;;5012578;28;20022;-66
2024/01/11 10:16:15;;;;;;;3.13;1.30;;;;;;;;;;5012421;28;20018;-67
2024/01/11 10:18:41;;;;;;;6.35;2.28;;;;;;;;;;5012707;28;20050;-67
2024/01/11 10:21:09;;;;;;;7.43;2.95;;;;;;;;;;5012446;28;20115;-67
2024/01/11 10:23:36;;;;;;;6.75;2.53;;;;;;;;;;5012695;28;20080;-66
2024/01/11 10:26:02;;;;;;;35.80;26.00;;;;;;;;;;5012476;28;20025;-66
2024/01/11 10:28:28;;;;;;;37.85;28.55;;;;;;;;;;5011096;28;20072;-65
2024/01/11 10:30:55;;;;;;;35.33;20.30;;;;;;;;;;5011840;28;20037;-67
2024/01/11 10:33:21;;;;;;;32.10;21.42;;;;;;;;;;5012407;28;20084;-68
2024/01/11 10:35:51;;;;;;;30.92;18.85;;;;;;;;;;5011900;28;20098;-68
2024/01/11 10:38:17;;;;;;;32.05;19.05;;;;;;;;;;5011875;28;20403;-67
2024/01/11 10:40:44;;;;;;;29.23;18.65;;;;;;;;;;5011750;28;20029;-67
2024/01/11 10:43:11;;;;;;;28.13;17.25;;;;;;;;;;5010728;28;20450;-68
2024/01/11 10:45:41;;;;;;;26.90;17.40;;;;;;;;;;5012015;28;20052;-67
2024/01/11 10:48:08;;;;;;;25.00;16.50;;;;;;;;;;5012004;28;20057;-67
2024/01/11 10:50:39;;;;;;;22.88;15.90;;;;;;;;;;5011499;28;20487;-67
2024/01/11 10:53:11;;;;;;;21.13;15.25;;;;;;;;;;5012011;28;20056;-66
2024/01/11 10:55:37;;;;;;;23.30;14.38;;;;;;;;;;5010464;28;20030;-68
2024/01/11 10:58:04;;;;;;;21.52;14.60;;;;;;;;;;5011793;28;20108;-68
2024/01/11 11:00:31;;;;;;;26.40;14.77;;;;;;;;;;5011649;28;20037;-67
2024/01/11 11:02:59;;;;;;;21.40;13.65;;;;;;;;;;5011445;28;20033;-67
2024/01/11 11:05:26;;;;;;;20.65;12.95;;;;;;;;;;5011784;28;20501;-67
2024/01/11 11:07:53;;;;;;;22.73;12.13;;;;;;;;;;5011775;28;20026;-67
2024/01/11 11:10:19;;;;;;;16.90;11.57;;;;;;;;;;5011199;28;20033;-67
2024/01/11 11:12:49;;;;;;;17.52;11.73;;;;;;;;;;5011478;28;20100;-69
2024/01/11 11:15:15;;;;;;;18.38;10.98;;;;;;;;;;5011792;28;20022;-68
2024/01/11 11:17:43;;;;;;;20.17;10.98;;;;;;;;;;5011670;28;20030;-69
2024/01/11 11:20:14;;;;;;;20.65;10.80;;;;;;;;;;5011297;28;20077;-69
2024/01/11 11:22:43;;;;;;;18.08;10.05;;;;;;;;;;5011692;28;20134;-69
2024/01/11 11:25:24;;;;;;;19.98;10.32;;;;;;;;;;5011669;28;20026;-69
2024/01/11 11:27:50;;;;;;;21.67;9.90;;;;;;;;;;5011750;28;20046;-68
2024/01/11 11:30:20;;;;;;;45.65;10.48;;;;;;;;;;5010785;28;20115;-69
2024/01/11 11:32:46;;;;;;;15.93;9.82;;;;;;;;;;5009658;28;20029;-69
2024/01/11 11:35:12;;;;;;;17.10;8.98;;;;;;;;;;5009399;28;20026;-69
2024/01/11 11:37:39;;;;;;;18.00;8.77;;;;;;;;;;5009519;28;20497;-68
2024/01/11 11:40:11;;;;;;;14.27;9.15;;;;;;;;;;5009293;28;20105;-68
2024/01/11 11:42:38;;;;;;;18.48;9.80;;;;;;;;;;5008219;28;20032;-66
2024/01/11 11:45:04;;;;;;;14.05;8.65;;;;;;;;;;5009558;28;20022;-67
2024/01/11 11:47:39;;;;;;;15.40;8.40;;;;;;;;;;5011707;28;20065;-67
2024/01/11 11:50:05;;;;;;;13.48;7.88;;;;;;;;;;5014430;28;20072;-69
2024/01/11 11:52:35;;;;;;;12.20;7.78;;;;;;;;;;5014720;28;20111;-69
2024/01/11 11:55:02;;;;;;;12.10;7.55;;;;;;;;;;5015373;28;20022;-66
2024/01/11 11:57:28;;;;;;;12.38;7.43;;;;;;;;;;5016454;28;20442;-67
2024/01/11 11:59:58;;;;;;;15.63;8.57;;;;;;;;;;5015992;28;20033;-69
2024/01/11 12:02:25;;;;;;;20.52;8.73;;;;;;;;;;5016034;28;20030;-67
2024/01/11 12:04:51;;;;;;;17.30;7.75;;;;;;;;;;5015265;28;20018;-66
2024/01/11 12:07:17;;;;;;;17.27;7.70;;;;;;;;;;5015088;28;20057;-65
2024/01/11 12:09:43;;;;;;;22.73;8.02;;;;;;;;;;5014491;28;20105;-65
2024/01/11 12:12:09;;;;;;;27.58;7.95;;;;;;;;;;5014879;28;20033;-65
2024/01/11 12:14:36;;;;;;;15.40;6.65;;;;;;;;;;5014551;28;20118;-65
2024/01/11 12:17:02;;;;;;;12.23;6.97;;;;;;;;;;5013455;28;20018;-65
2024/01/11 12:19:28;;;;;;;19.77;7.05;;;;;;;;;;5013591;28;20025;-66
2024/01/11 12:21:54;;;;;;;16.23;7.20;;;;;;;;;;5013634;28;20109;-66
2024/01/11 12:24:22;;;;;;;14.77;6.63;;;;;;;;;;5013722;28;20022;-66
2024/01/11 12:26:50;;;;;;;16.38;5.95;;;;;;;;;;5013672;28;20040;-65
2024/01/11 12:29:18;;;;;;;13.88;6.38;;;;;;;;;;5013429;28;20026;-65
2024/01/11 12:31:44;;;;;;;13.52;5.75;;;;;;;;;;5002579;28;20061;-66
2024/01/11 12:34:12;;;;;;;13.80;5.15;;;;;;;;;;4993901;28;20514;-66
2024/01/11 12:36:39;;;;;;;9.45;5.80;;;;;;;;;;4993861;28;20122;-66
2024/01/11 12:39:06;;;;;;;8.95;5.93;;;;;;;;;;4993828;28;20019;-66
2024/01/11 12:41:32;;;;;;;8.40;6.13;;;;;;;;;;4993710;28;20114;-66
2024/01/11 12:43:59;;;;;;;13.68;6.65;;;;;;;;;;4993766;28;20117;-66
2024/01/11 12:46:25;;;;;;;12.02;6.93;;;;;;;;;;4993838;28;20034;-65
2024/01/11 12:48:51;;;;;;;9.40;6.00;;;;;;;;;;4993635;28;20037;-67
2024/01/11 12:51:18;;;;;;;8.93;6.30;;;;;;;;;;4993590;28;20023;-66
2024/01/11 12:53:52;;;;;;;10.43;6.18;;;;;;;;;;4992248;28;20373;-66
2024/01/11 12:56:19;;;;;;;8.93;5.75;;;;;;;;;;4993465;28;20511;-67
2024/01/11 12:58:46;;;;;;;9.65;6.28;;;;;;;;;;4993252;28;20030;-68
2024/01/11 13:01:13;;;;;;;8.65;6.25;;;;;;;;;;4992888;28;20026;-67
2024/01/11 13:03:40;;;;;;;14.13;5.68;;;;;;;;;;4993629;28;20504;-67
2024/01/11 13:06:06;;;;;;;9.52;5.55;;;;;;;;;;4993612;28;20053;-67
2024/01/11 13:08:34;;;;;;;8.43;5.80;;;;;;;;;;4993390;28;20027;-67
2024/01/11 13:11:01;;;;;;;9.25;5.63;;;;;;;;;;4993125;28;20563;-67
2024/01/11 13:13:28;;;;;;;9.98;5.95;;;;;;;;;;4993614;28;20050;-67
2024/01/11 13:15:54;;;;;;;11.60;6.07;;;;;;;;;;4993344;28;20025;-67
2024/01/11 13:18:20;;;;;;;11.15;6.50;;;;;;;;;;4994176;28;20031;-67
2024/01/11 13:20:47;;;;;;;8.82;6.05;;;;;;;;;;4993994;28;20029;-68
2024/01/11 13:23:19;;;;;;;11.30;5.80;;;;;;;;;;4994211;28;20388;-68
2024/01/11 13:25:46;;;;;;;9.85;5.45;;;;;;;;;;4994359;28;20023;-68
2024/01/11 13:28:12;;;;;;;10.68;5.75;;;;;;;;;;4994321;28;20395;-67
2024/01/11 13:30:40;;;;;;;10.93;5.68;;;;;;;;;;4997086;28;20050;-67
2024/01/11 13:33:07;;;;;;;6.47;4.85;;;;;;;;;;5003426;28;20018;-67
2024/01/11 13:35:34;;;;;;;10.10;5.47;;;;;;;;;;5013878;28;20414;-70
2024/01/11 13:38:00;;;;;;;16.35;7.00;;;;;;;;;;5013604;28;20072;-68
2024/01/11 13:40:28;;;;;;;10.93;6.25;;;;;;;;;;5009221;28;20117;-67
2024/01/11 13:42:55;;;;;;;13.20;6.75;;;;;;;;;;5012595;28;20403;-68
2024/01/11 13:45:21;;;;;;;14.18;7.07;;;;;;;;;;5013161;28;20471;-67
2024/01/11 13:47:47;;;;;;;11.77;6.32;;;;;;;;;;5012503;28;20025;-66
2024/01/11 13:50:14;;;;;;;10.10;6.57;;;;;;;;;;5012107;28;20125;-67
2024/01/11 13:52:41;;;;;;;12.05;6.82;;;;;;;;;;5012448;28;20048;-67
2024/01/11 13:55:09;;;;;;;11.20;7.03;;;;;;;;;;5012227;28;20109;-66
2024/01/11 13:57:36;;;;;;;10.70;6.35;;;;;;;;;;5012502;28;20022;-67
2024/01/11 14:00:03;;;;;;;14.75;7.00;;;;;;;;;;5010501;28;20113;-66
2024/01/11 14:02:29;;;;;;;12.35;6.68;;;;;;;;;;5012141;28;20034;-66
2024/01/11 14:04:54;;;;;;;10.20;6.25;;;;;;;;;;5012574;28;20033;-67
2024/01/11 14:07:20;;;;;;;9.68;5.80;;;;;;;;;;5011735;28;20072;-67
2024/01/11 14:09:46;;;;;;;12.02;5.55;;;;;;;;;;5011491;28;20032;-66
2024/01/11 14:12:15;;;;;;;16.92;9.70;;;;;;;;;;5011718;28;20021;-68
2024/01/11 14:14:41;;;;;;;18.10;11.27;;;;;;;;;;5011745;28;20493;-67
2024/01/11 14:17:07;;;;;;;17.63;12.13;;;;;;;;;;5011713;28;20092;-67
2024/01/11 14:19:33;;;;;;;19.90;10.32;;;;;;;;;;5011560;28;20014;-67
2024/01/11 14:21:59;;;;;;;13.80;8.57;;;;;;;;;;5012143;28;20406;-67
2024/01/11 14:24:25;;;;;;;18.45;9.85;;;;;;;;;;5011664;28;20034;-67
2024/01/11 14:26:51;;;;;;;15.30;9.25;;;;;;;;;;5011991;28;20455;-67
2024/01/11 14:29:17;;;;;;;16.67;10.23;;;;;;;;;;5011868;28;20030;-67
2024/01/11 14:31:43;;;;;;;13.15;8.98;;;;;;;;;;5011090;28;20026;-67